Bom Fim do Bom Jesus, Brazil
Current Conditions -  °F | °C
As of 7:00 PM on Thursday 18 Dec 2014 (Local Time) from SBKP Reporting Station
Few Clouds Few Clouds  
Wind Chill: 88°   Ceiling: Unl
Heat Index: 88°   Visibility: 6mi
Dew Point: 57°   Wind: 8mph
Humidity: 35%   Direction: 220°SW
Pressure: 29.83"   Gusts: NA
Location:  23.29°S, 47.06°W
Report Text: SBKP 182100Z 22007KT 9999 FEW040 31/14 Q1010
Loading
Personal Weather Stations






























Interactive Weather Map New forecast layout! Learn more

10-Day Weather Forecast

Advertisements
Track Severe Weather on mobile